Time;durP1;ratioP1;P1;durP2;ratioP2;P2;SDS_P1;SDS_P2;PMS_P1;PMS_P2;Temp;Humidity;BMP_temperature;BMP_pressure;BME280_temperature;BME280_humidity;BME280_pressure;Samples;Min_cycle;Max_cycle;Signal;HPM_P1;HPM_P2
2022/03/11 00:00:52;;;;;;;11.00;7.97;;;;;;;0.18;41.46;100544.59;5009269;28;20050;-66
2022/03/11 00:03:24;;;;;;;15.10;7.70;;;;;;;0.26;41.05;100550.75;5009210;28;20298;-66
2022/03/11 00:05:57;;;;;;;10.60;7.57;;;;;;;0.27;40.88;100553.34;5009214;28;20297;-66
2022/03/11 00:08:29;;;;;;;16.67;7.28;;;;;;;0.26;41.00;100550.75;5009138;28;20050;-65
2022/03/11 00:11:01;;;;;;;10.43;7.43;;;;;;;0.32;40.59;100545.56;5009022;28;20049;-66
2022/03/11 00:13:35;;;;;;;12.25;8.40;;;;;;;-0.51;40.77;100471.19;5009037;28;20038;-68
2022/03/11 00:16:08;;;;;;;13.63;8.85;;;;;;;0.22;42.25;100551.59;5009056;28;20038;-65
2022/03/11 00:18:41;;;;;;;10.50;8.00;;;;;;;0.20;41.08;100554.19;5008809;28;20050;-66
2022/03/11 00:21:13;;;;;;;15.32;8.13;;;;;;;0.10;41.87;100552.38;5008672;28;20046;-65
2022/03/11 00:23:46;;;;;;;12.00;8.82;;;;;;;-0.03;41.89;100553.16;5008146;28;20057;-65
2022/03/11 00:26:18;;;;;;;14.23;9.55;;;;;;;-0.72;42.01;100513.56;5008618;28;20038;-65
2022/03/11 00:28:50;;;;;;;12.07;8.32;;;;;;;-0.06;42.45;100559.22;5008522;28;20042;-65
2022/03/11 00:31:24;;;;;;;13.68;8.23;;;;;;;0.01;41.93;100559.28;5008236;28;20046;-66
2022/03/11 00:33:58;;;;;;;12.07;7.85;;;;;;;-0.03;42.21;100558.38;5007964;28;20286;-66
2022/03/11 00:36:27;;;;;;;9.82;6.88;;;;;;;-0.13;42.03;100546.16;5008646;28;20050;-65
2022/03/11 00:38:57;;;;;;;10.50;7.70;;;;;;;-0.16;42.70;100564.38;5008357;28;20042;-65
2022/03/11 00:41:28;;;;;;;12.45;8.50;;;;;;;-0.28;42.79;100562.53;5008584;28;20069;-65
2022/03/11 00:43:58;;;;;;;11.02;8.05;;;;;;;-0.46;43.76;100571.06;5008564;28;20049;-65
2022/03/11 00:46:30;;;;;;;10.13;7.65;;;;;;;-0.54;42.95;100562.31;5008443;28;20337;-65
2022/03/11 00:48:58;;;;;;;11.38;7.28;;;;;;;-0.54;43.60;100564.06;5008212;28;20210;-66
2022/03/11 00:51:29;;;;;;;11.85;7.55;;;;;;;-0.57;42.79;100559.69;5008311;28;20066;-65
2022/03/11 00:53:59;;;;;;;12.73;6.90;;;;;;;-0.60;43.44;100559.66;5014097;28;20050;-66
2022/03/11 00:56:30;;;;;;;9.88;7.95;;;;;;;-0.68;43.39;100558.72;5027915;28;20249;-65
2022/03/11 00:58:59;;;;;;;13.88;5.82;;;;;;;-0.59;42.58;100551.00;5043639;28;20050;-65
2022/03/11 01:01:31;;;;;;;10.80;7.00;;;;;;;-0.61;43.60;100559.66;5027798;28;20049;-65
2022/03/11 01:04:00;;;;;;;12.80;7.80;;;;;;;-0.68;43.24;100562.19;5027525;28;20183;-65
2022/03/11 01:06:30;;;;;;;10.18;7.25;;;;;;;-0.71;43.40;100563.91;5027784;28;20042;-65
2022/03/11 01:09:00;;;;;;;11.57;7.53;;;;;;;-0.69;43.59;100555.25;5027728;28;20050;-65
2022/03/11 01:11:31;;;;;;;9.38;7.15;;;;;;;-0.59;42.81;100563.13;5027601;28;20064;-65
2022/03/11 01:14:01;;;;;;;12.23;8.85;;;;;;;-0.49;42.66;100558.03;5027362;28;20046;-65
2022/03/11 01:16:33;;;;;;;9.50;7.43;;;;;;;-0.49;43.02;100557.16;5027559;28;20049;-65
2022/03/11 01:19:02;;;;;;;12.98;7.70;;;;;;;-0.55;42.89;100563.19;5027280;28;20290;-65
2022/03/11 01:21:32;;;;;;;9.80;6.95;;;;;;;-0.65;43.72;100557.88;5027506;28;20049;-66
2022/03/11 01:24:02;;;;;;;12.45;8.32;;;;;;;-1.81;42.87;100346.88;5027105;28;20053;-65
2022/03/11 01:26:32;;;;;;;9.55;7.53;;;;;;;-0.61;43.01;100562.25;5027529;28;20045;-65
2022/03/11 01:29:02;;;;;;;12.55;6.90;;;;;;;-0.55;42.26;100559.72;5027374;28;20041;-65
2022/03/11 01:31:34;;;;;;;8.73;6.70;;;;;;;-0.47;41.78;100552.84;5027236;28;20041;-65
2022/03/11 01:34:03;;;;;;;10.68;7.30;;;;;;;-0.61;42.69;100557.91;5027250;28;20038;-65
2022/03/11 01:36:33;;;;;;;11.82;7.68;;;;;;;-2.57;42.46;100223.13;5027213;28;20049;-65
2022/03/11 01:39:04;;;;;;;12.68;6.68;;;;;;;-1.05;42.44;100480.25;5027125;28;20057;-66
2022/03/11 01:41:34;;;;;;;7.97;6.55;;;;;;;-0.69;42.24;100557.84;5026862;28;20042;-67
2022/03/11 01:44:07;;;;;;;9.65;5.95;;;;;;;-0.67;42.31;100557.88;5027078;28;20175;-65
2022/03/11 01:46:37;;;;;;;12.75;7.57;;;;;;;-0.80;42.61;100556.00;5025794;28;20049;-65
2022/03/11 01:49:07;;;;;;;9.95;6.40;;;;;;;-0.78;42.17;100562.09;5026920;28;20065;-67
2022/03/11 01:51:38;;;;;;;10.00;6.15;;;;;;;-0.79;42.18;100562.94;5026747;28;20197;-64
2022/03/11 01:54:11;;;;;;;9.73;7.07;;;;;;;-0.84;42.45;100556.81;5026509;28;20081;-67
2022/03/11 01:56:42;;;;;;;12.35;6.55;;;;;;;-0.89;42.04;100564.59;5026469;28;20041;-66
2022/03/11 01:59:12;;;;;;;8.30;6.05;;;;;;;-0.88;42.39;100561.13;5042147;28;20320;-65
2022/03/11 02:01:42;;;;;;;7.72;5.75;;;;;;;-0.92;42.22;100574.09;5026752;28;20049;-65
2022/03/11 02:04:11;;;;;;;8.88;6.05;;;;;;;-0.90;41.49;100569.78;5026662;28;20042;-65
2022/03/11 02:06:41;;;;;;;9.27;5.88;;;;;;;-0.96;41.42;100573.19;5026673;28;20042;-65
2022/03/11 02:09:12;;;;;;;7.70;5.88;;;;;;;-1.31;41.60;100531.16;5026612;28;20050;-65
2022/03/11 02:11:42;;;;;;;9.13;5.95;;;;;;;-1.02;41.95;100573.09;5026557;28;20061;-65
2022/03/11 02:14:12;;;;;;;7.57;5.50;;;;;;;-0.99;41.89;100577.50;5026449;28;20054;-66
2022/03/11 02:16:44;;;;;;;8.57;5.60;;;;;;;-1.19;42.25;100585.03;5026493;28;20042;-65
2022/03/11 02:19:13;;;;;;;8.35;5.93;;;;;;;-1.23;42.20;100583.25;5026150;28;20210;-65
2022/03/11 02:21:45;;;;;;;9.05;5.47;;;;;;;-1.33;42.35;100577.06;5026369;28;20049;-65
2022/03/11 02:24:16;;;;;;;8.23;6.82;;;;;;;-1.34;42.12;100584.00;5026399;28;20045;-64
2022/03/11 02:26:44;;;;;;;8.32;5.57;;;;;;;-1.30;41.90;100594.44;5025122;28;20065;-65
2022/03/11 02:29:14;;;;;;;7.80;6.07;;;;;;;-1.42;42.08;100579.56;5026322;28;20042;-65
2022/03/11 02:31:44;;;;;;;6.82;5.40;;;;;;;-1.44;42.66;100581.25;5026280;28;20046;-65
2022/03/11 02:34:14;;;;;;;6.43;5.03;;;;;;;-1.41;42.05;100582.19;5026137;28;20046;-66
2022/03/11 02:36:44;;;;;;;8.18;5.20;;;;;;;-1.40;42.06;100588.25;5026277;28;20053;-66
2022/03/11 02:39:16;;;;;;;7.22;5.15;;;;;;;-1.42;42.82;100589.97;5025916;28;20183;-66
2022/03/11 02:41:47;;;;;;;7.57;4.95;;;;;;;-1.47;42.38;100586.41;5026133;28;20049;-66
2022/03/11 02:44:15;;;;;;;9.18;6.20;;;;;;;-1.50;42.68;100584.66;5026171;28;20045;-65
2022/03/11 02:46:45;;;;;;;8.15;6.00;;;;;;;-1.50;42.64;100586.38;5026083;28;20061;-66
2022/03/11 02:49:15;;;;;;;10.13;5.93;;;;;;;-1.58;42.98;100581.09;5026029;28;20290;-64
2022/03/11 02:51:45;;;;;;;7.53;5.18;;;;;;;-1.59;42.89;100581.06;5026549;28;20048;-66
2022/03/11 02:54:17;;;;;;;7.38;5.93;;;;;;;-1.59;42.84;100584.53;5025584;28;20089;-66
2022/03/11 02:56:46;;;;;;;8.20;5.82;;;;;;;-1.54;42.46;100582.00;5025303;28;20050;-66
2022/03/11 02:59:16;;;;;;;7.55;5.65;;;;;;;-1.59;42.67;100583.66;5025952;28;20042;-66
2022/03/11 03:01:46;;;;;;;6.30;4.80;;;;;;;-1.87;42.95;100553.81;5025904;28;20030;-66
2022/03/11 03:04:16;;;;;;;8.57;5.47;;;;;;;-1.81;43.53;100596.34;5025893;28;20045;-66
2022/03/11 03:06:46;;;;;;;10.60;6.05;;;;;;;-1.82;42.89;100594.63;5025882;28;20308;-66
2022/03/11 03:09:17;;;;;;;9.70;6.20;;;;;;;-1.72;43.53;100593.88;5025857;28;20041;-66
2022/03/11 03:11:46;;;;;;;7.32;5.45;;;;;;;-1.91;43.17;100558.09;5026137;28;20026;-66
2022/03/11 03:14:16;;;;;;;7.15;5.38;;;;;;;-1.73;43.23;100597.34;5025469;28;20052;-65
2022/03/11 03:16:46;;;;;;;7.18;6.32;;;;;;;-1.79;43.40;100596.38;5025762;28;20037;-66
2022/03/11 03:19:16;;;;;;;8.75;5.55;;;;;;;-1.79;43.31;100610.25;5025746;28;20038;-66
2022/03/11 03:21:46;;;;;;;7.93;5.57;;;;;;;-2.00;44.18;100612.53;5025718;28;20092;-65
2022/03/11 03:24:18;;;;;;;7.82;5.55;;;;;;;-1.99;43.69;100606.47;5025759;28;20088;-66
2022/03/11 03:26:47;;;;;;;9.40;5.82;;;;;;;-2.01;44.08;100608.19;5025377;28;20046;-65
2022/03/11 03:29:17;;;;;;;7.88;6.28;;;;;;;-2.08;44.57;100615.00;5025837;28;20080;-65
2022/03/11 03:31:47;;;;;;;8.68;5.72;;;;;;;-2.07;43.88;100608.97;5025595;28;20049;-66
2022/03/11 03:34:17;;;;;;;7.60;5.82;;;;;;;-2.06;43.68;100609.84;5025759;28;20038;-65
2022/03/11 03:36:47;;;;;;;7.95;6.18;;;;;;;-2.31;45.20;100611.16;5025539;28;20050;-65
2022/03/11 03:39:19;;;;;;;8.20;5.97;;;;;;;-2.41;45.17;100610.13;5025299;28;20042;-65
2022/03/11 03:41:47;;;;;;;10.52;6.45;;;;;;;-2.51;45.38;100621.19;5025481;28;20179;-66
2022/03/11 03:44:18;;;;;;;11.52;6.50;;;;;;;-2.56;45.22;100609.88;5025220;28;20213;-66
2022/03/11 03:46:48;;;;;;;12.30;6.05;;;;;;;-2.53;45.42;100617.72;5025168;28;20298;-65
2022/03/11 03:49:18;;;;;;;12.27;6.50;;;;;;;-2.53;45.02;100615.13;5025288;28;20058;-66
2022/03/11 03:51:48;;;;;;;13.25;6.30;;;;;;;-2.52;45.20;100623.78;5025370;28;20282;-66
2022/03/11 03:54:20;;;;;;;8.00;6.28;;;;;;;-2.52;45.16;100623.78;5024876;28;20310;-66
2022/03/11 03:56:48;;;;;;;8.27;6.30;;;;;;;-2.46;44.63;100616.09;5025048;28;20042;-65
2022/03/11 03:59:18;;;;;;;7.07;5.30;;;;;;;-2.55;44.59;100622.00;5025605;28;20030;-66
2022/03/11 04:01:48;;;;;;;9.45;5.30;;;;;;;-2.62;44.67;100621.00;5025228;28;20049;-65
2022/03/11 04:04:19;;;;;;;7.32;5.28;;;;;;;-2.71;45.13;100622.56;5025798;28;20045;-66
2022/03/11 04:06:49;;;;;;;10.65;6.00;;;;;;;-2.93;45.09;100586.69;5025248;28;20041;-66
2022/03/11 04:09:20;;;;;;;7.13;5.25;;;;;;;-2.65;44.66;100620.09;5027038;28;20038;-66
2022/03/11 04:11:49;;;;;;;11.43;7.03;;;;;;;-2.75;44.88;100633.75;5028025;28;20068;-65
2022/03/11 04:14:19;;;;;;;7.40;5.85;;;;;;;-2.80;44.52;100622.41;5028695;28;20042;-65
2022/03/11 04:16:49;;;;;;;7.88;5.40;;;;;;;-2.82;44.38;100624.09;5028681;28;20113;-65
2022/03/11 04:19:19;;;;;;;10.82;6.45;;;;;;;-2.85;44.69;100643.06;5029328;28;20038;-65
2022/03/11 04:21:49;;;;;;;8.65;6.45;;;;;;;-2.84;44.78;100634.44;5029330;28;20037;-66
2022/03/11 04:24:23;;;;;;;7.38;5.68;;;;;;;-3.24;44.43;100551.53;5028599;28;20046;-66
2022/03/11 04:26:55;;;;;;;7.72;5.45;;;;;;;-2.85;44.81;100640.47;5028501;28;20056;-66
2022/03/11 04:29:27;;;;;;;8.70;5.72;;;;;;;-2.84;44.58;100643.94;5028240;28;20038;-66
2022/03/11 04:31:59;;;;;;;10.10;6.28;;;;;;;-2.93;44.48;100646.34;5028188;28;20214;-66
2022/03/11 04:34:32;;;;;;;10.48;6.28;;;;;;;-3.01;44.97;100644.47;5028282;28;20049;-66
2022/03/11 04:37:05;;;;;;;8.65;6.25;;;;;;;-3.04;44.54;100643.56;5028105;28;20209;-66
2022/03/11 04:39:39;;;;;;;9.35;6.15;;;;;;;-3.02;44.30;100647.06;5028317;28;20041;-66
2022/03/11 04:42:11;;;;;;;7.53;5.90;;;;;;;-2.85;43.66;100644.78;5027992;28;20049;-66
2022/03/11 04:44:43;;;;;;;7.93;5.57;;;;;;;-2.97;44.21;100654.06;5028204;28;20046;-66
2022/03/11 04:47:15;;;;;;;7.68;6.43;;;;;;;-3.01;44.25;100651.38;5027773;28;20042;-66
2022/03/11 04:49:48;;;;;;;6.68;5.65;;;;;;;-2.95;44.23;100642.00;5027821;28;20064;-67
2022/03/11 04:52:20;;;;;;;9.85;6.32;;;;;;;-3.06;44.30;100648.72;5028036;28;20060;-66
2022/03/11 04:54:54;;;;;;;8.25;6.40;;;;;;;-3.09;44.41;100652.97;5027589;28;20054;-67
2022/03/11 04:57:27;;;;;;;7.70;5.57;;;;;;;-3.20;44.62;100657.91;5027763;28;20042;-65
2022/03/11 04:59:59;;;;;;;8.05;6.03;;;;;;;-3.21;44.55;100648.38;5027403;28;20042;-65
2022/03/11 05:02:31;;;;;;;7.88;5.57;;;;;;;-3.12;44.13;100650.31;5027891;28;20049;-65
2022/03/11 05:05:05;;;;;;;9.02;6.00;;;;;;;-3.15;44.72;100651.09;5027811;28;20052;-65
2022/03/11 05:07:38;;;;;;;8.52;6.03;;;;;;;-3.11;44.27;100647.75;5027623;28;20042;-65
2022/03/11 05:10:14;;;;;;;9.60;6.25;;;;;;;-3.16;44.19;100644.19;5027427;28;20038;-65
2022/03/11 05:12:46;;;;;;;9.50;6.22;;;;;;;-3.22;44.51;100644.06;5027349;28;20049;-65
2022/03/11 05:15:18;;;;;;;8.35;6.25;;;;;;;-3.22;43.66;100646.66;5027510;28;20309;-65
2022/03/11 05:17:51;;;;;;;9.27;6.43;;;;;;;-3.16;44.44;100645.91;5027337;28;20042;-65
2022/03/11 05:20:23;;;;;;;8.25;6.00;;;;;;;-3.21;44.58;100666.53;5026999;28;20313;-64
2022/03/11 05:22:56;;;;;;;7.63;6.15;;;;;;;-3.18;44.12;100660.53;5027436;28;20049;-65
2022/03/11 05:25:29;;;;;;;8.43;5.60;;;;;;;-3.26;44.75;100662.97;5027434;28;20045;-65
2022/03/11 05:28:02;;;;;;;10.05;6.68;;;;;;;-3.42;44.95;100663.50;5027453;28;20201;-64
2022/03/11 05:30:34;;;;;;;9.18;6.07;;;;;;;-3.41;44.35;100666.13;5027329;28;20061;-65
2022/03/11 05:33:07;;;;;;;9.23;5.72;;;;;;;-3.39;44.73;100669.63;5026502;28;20310;-65
2022/03/11 05:35:41;;;;;;;10.93;7.05;;;;;;;-3.45;44.82;100659.13;5026794;28;20046;-66
2022/03/11 05:38:13;;;;;;;10.40;5.80;;;;;;;-3.46;44.94;100659.09;5027098;28;20286;-65
2022/03/11 05:40:46;;;;;;;7.78;6.38;;;;;;;-3.41;45.07;100666.13;5027128;28;20321;-65
2022/03/11 05:43:19;;;;;;;7.93;6.00;;;;;;;-3.46;45.18;100665.13;5026816;28;20041;-65
2022/03/11 05:45:51;;;;;;;8.75;5.93;;;;;;;-3.48;45.33;100664.22;5026809;28;20064;-66
2022/03/11 05:48:23;;;;;;;10.57;6.85;;;;;;;-3.43;44.99;100656.56;5026966;28;20045;-65
2022/03/11 05:50:55;;;;;;;8.45;5.40;;;;;;;-3.34;44.16;100656.75;5026899;28;20217;-66
2022/03/11 05:53:27;;;;;;;10.43;6.05;;;;;;;-3.40;45.16;100651.44;5026342;28;20041;-66
2022/03/11 05:56:01;;;;;;;10.52;6.18;;;;;;;-3.49;44.90;100657.28;5026486;28;20084;-66
2022/03/11 05:58:33;;;;;;;8.07;5.72;;;;;;;-3.33;44.29;100666.28;5026005;28;20092;-66
2022/03/11 06:01:06;;;;;;;10.63;6.75;;;;;;;-3.32;44.74;100674.09;5026634;28;20096;-65
2022/03/11 06:03:38;;;;;;;10.30;6.32;;;;;;;-3.32;45.13;100675.81;5026395;28;20042;-65
2022/03/11 06:06:10;;;;;;;9.02;6.85;;;;;;;-3.30;45.05;100684.50;5025758;28;20092;-65
2022/03/11 06:08:43;;;;;;;9.63;7.28;;;;;;;-3.28;45.25;100688.00;5026353;28;20045;-66
2022/03/11 06:11:17;;;;;;;9.02;7.05;;;;;;;-3.16;44.59;100689.97;5026512;28;20041;-66
2022/03/11 06:13:49;;;;;;;8.10;6.15;;;;;;;-3.15;44.81;100689.13;5026342;28;20092;-65
2022/03/11 06:16:22;;;;;;;10.10;6.78;;;;;;;-3.02;44.57;100696.34;5026451;28;20050;-66
2022/03/11 06:18:54;;;;;;;9.63;6.70;;;;;;;-2.97;43.98;100685.19;5026169;28;20042;-66
2022/03/11 06:21:26;;;;;;;10.60;6.57;;;;;;;-2.93;44.06;100686.16;5026334;28;20050;-66
2022/03/11 06:23:58;;;;;;;9.40;5.63;;;;;;;-2.81;43.54;100683.78;5026256;28;20088;-66
2022/03/11 06:26:32;;;;;;;9.68;6.80;;;;;;;-2.77;44.00;100684.72;5026263;28;20057;-66
2022/03/11 06:29:04;;;;;;;8.38;6.55;;;;;;;-2.62;43.25;100685.91;5026238;28;20096;-64
2022/03/11 06:31:36;;;;;;;10.52;6.22;;;;;;;-2.67;43.46;100691.84;5025302;28;20249;-65
2022/03/11 06:34:09;;;;;;;11.35;6.00;;;;;;;-2.56;43.10;100685.16;5025946;28;20049;-65
2022/03/11 06:36:41;;;;;;;9.15;6.70;;;;;;;-2.54;43.41;100692.97;5026095;28;20050;-65
2022/03/11 06:39:13;;;;;;;11.75;6.63;;;;;;;-2.59;43.43;100694.59;5025908;28;20049;-65
2022/03/11 06:41:44;;;;;;;10.10;6.35;;;;;;;-2.53;43.33;100697.31;5026053;28;20042;-65
2022/03/11 06:44:16;;;;;;;8.48;5.68;;;;;;;-2.50;43.31;100693.03;5025656;28;20038;-65
2022/03/11 06:46:43;;;;;;;11.98;6.88;;;;;;;-2.41;42.77;100690.63;5026097;28;20053;-65
2022/03/11 06:49:13;;;;;;;9.15;7.00;;;;;;;-2.28;42.65;100683.91;5025973;28;20085;-65
2022/03/11 06:51:43;;;;;;;10.90;6.10;;;;;;;-2.18;42.41;100704.00;5025634;28;20044;-65
2022/03/11 06:54:14;;;;;;;8.40;5.60;;;;;;;-2.14;42.34;100695.44;5025353;28;20072;-65
2022/03/11 06:56:45;;;;;;;8.60;5.97;;;;;;;-2.20;42.33;100697.03;5025852;28;20034;-65
2022/03/11 06:59:14;;;;;;;9.57;6.88;;;;;;;-2.05;42.17;100700.78;5025785;28;20301;-65
2022/03/11 07:01:44;;;;;;;9.50;6.60;;;;;;;-2.08;41.99;100702.44;5025197;28;20310;-65
2022/03/11 07:04:14;;;;;;;10.13;6.03;;;;;;;-1.91;41.68;100703.63;5025640;28;20090;-65
2022/03/11 07:06:44;;;;;;;9.52;6.82;;;;;;;-1.83;41.56;100708.94;5025478;28;20256;-65
2022/03/11 07:09:14;;;;;;;10.15;6.97;;;;;;;-1.75;40.97;100696.94;5025671;28;20049;-66
2022/03/11 07:11:46;;;;;;;9.57;6.50;;;;;;;-1.74;41.29;100699.56;5025758;28;20050;-66
2022/03/11 07:14:15;;;;;;;10.07;6.82;;;;;;;-1.57;41.14;100699.81;5025470;28;20128;-66
2022/03/11 07:16:45;;;;;;;8.27;6.30;;;;;;;-1.30;40.57;100704.56;5024892;28;20042;-66
2022/03/11 07:19:15;;;;;;;9.30;6.60;;;;;;;-1.34;40.25;100705.38;5025554;28;20049;-66
2022/03/11 07:21:45;;;;;;;8.18;5.80;;;;;;;-1.69;40.33;100648.53;5025599;28;20104;-66
2022/03/11 07:24:15;;;;;;;7.68;6.32;;;;;;;-1.21;40.16;100698.59;5025556;28;20042;-66
2022/03/11 07:26:47;;;;;;;8.70;5.82;;;;;;;-1.00;39.61;100696.31;5025548;28;20074;-66
2022/03/11 07:29:16;;;;;;;7.55;5.35;;;;;;;-0.92;39.40;100697.28;5025347;28;20088;-66
2022/03/11 07:31:46;;;;;;;12.70;6.68;;;;;;;-0.94;39.44;100688.59;5025356;28;20121;-66
2022/03/11 07:34:16;;;;;;;6.90;4.88;;;;;;;-1.94;39.32;100490.50;5025800;28;20116;-66
2022/03/11 07:36:46;;;;;;;9.65;6.57;;;;;;;-0.61;39.23;100703.75;5025478;28;20054;-66
2022/03/11 07:39:16;;;;;;;9.68;6.97;;;;;;;-0.49;38.76;100692.59;5025489;28;20041;-66
2022/03/11 07:41:48;;;;;;;8.80;6.35;;;;;;;-0.40;38.90;100695.28;5025187;28;20038;-66
2022/03/11 07:44:16;;;;;;;7.72;5.97;;;;;;;-0.38;38.53;100704.00;5028289;28;20061;-67
2022/03/11 07:46:46;;;;;;;8.18;5.75;;;;;;;-0.29;38.62;100698.00;5029147;28;20109;-66
2022/03/11 07:49:16;;;;;;;11.57;7.55;;;;;;;-0.39;38.05;100671.84;5029226;28;20069;-66
2022/03/11 07:51:46;;;;;;;8.48;6.07;;;;;;;-0.28;38.06;100715.38;5029522;28;20049;-66
2022/03/11 07:54:17;;;;;;;11.60;6.70;;;;;;;-0.41;38.22;100707.44;5028664;28;20085;-66
2022/03/11 07:56:48;;;;;;;9.82;6.05;;;;;;;-0.51;37.94;100717.72;5028977;28;20046;-66
2022/03/11 07:59:17;;;;;;;9.43;7.00;;;;;;;-0.54;38.18;100730.72;5028755;28;20038;-66
2022/03/11 08:01:47;;;;;;;9.93;6.30;;;;;;;-0.45;38.33;100710.88;5029358;28;20293;-66
2022/03/11 08:04:17;;;;;;;10.18;6.20;;;;;;;-0.19;37.61;100695.50;5028608;28;20249;-66
2022/03/11 08:06:48;;;;;;;9.80;5.97;;;;;;;-0.11;37.20;100716.41;5028869;28;20253;-66
2022/03/11 08:09:18;;;;;;;9.82;6.93;;;;;;;-0.01;37.45;100712.16;5028710;28;20194;-66
2022/03/11 08:11:49;;;;;;;8.90;5.90;;;;;;;0.07;36.73;100700.94;5028358;28;20187;-66
2022/03/11 08:14:18;;;;;;;9.93;6.82;;;;;;;-0.02;36.42;100718.25;5029150;28;20164;-66
2022/03/11 08:16:48;;;;;;;8.40;6.07;;;;;;;0.03;36.50;100706.13;5027717;28;20076;-66
2022/03/11 08:19:18;;;;;;;9.55;5.85;;;;;;;0.16;36.90;100700.16;5028712;28;20344;-66
2022/03/11 08:21:48;;;;;;;9.38;6.28;;;;;;;0.44;36.55;100709.06;5027997;28;20084;-66
2022/03/11 08:24:18;;;;;;;11.13;6.18;;;;;;;0.39;36.16;100711.63;5028292;28;20046;-66
2022/03/11 08:26:50;;;;;;;7.32;5.50;;;;;;;0.36;36.08;100708.13;5027996;28;20046;-66
2022/03/11 08:29:20;;;;;;;8.13;5.38;;;;;;;0.47;36.51;100704.75;5028049;28;20338;-66
2022/03/11 08:31:49;;;;;;;8.40;5.55;;;;;;;0.59;36.15;100702.22;5027982;28;20053;-67
2022/03/11 08:34:19;;;;;;;8.52;6.00;;;;;;;0.46;35.50;100671.69;5028112;28;20170;-67
2022/03/11 08:36:49;;;;;;;6.50;4.75;;;;;;;0.52;35.48;100695.22;5028315;28;20046;-67
2022/03/11 08:39:19;;;;;;;7.55;4.68;;;;;;;0.47;35.58;100706.47;5028092;28;20042;-66
2022/03/11 08:41:50;;;;;;;8.40;5.50;;;;;;;0.59;35.70;100704.81;5028025;28;20041;-67
2022/03/11 08:44:19;;;;;;;7.68;5.72;;;;;;;0.41;35.88;100676.00;5028523;28;20105;-66
2022/03/11 08:46:49;;;;;;;9.00;6.15;;;;;;;0.86;35.65;100680.63;5028126;28;20049;-67
2022/03/11 08:49:19;;;;;;;11.45;7.82;;;;;;;1.08;35.53;100693.78;5028089;28;20045;-67
2022/03/11 08:51:49;;;;;;;11.57;6.22;;;;;;;1.15;35.33;100703.41;5027712;28;20084;-66
2022/03/11 08:54:20;;;;;;;10.73;6.45;;;;;;;1.29;35.07;100696.50;5027102;28;20054;-67
2022/03/11 08:56:52;;;;;;;9.00;6.50;;;;;;;1.49;35.28;100686.97;5027858;28;20057;-67
2022/03/11 08:59:20;;;;;;;8.75;5.65;;;;;;;1.69;34.92;100691.41;5027869;28;20049;-66
2022/03/11 09:01:50;;;;;;;7.35;5.75;;;;;;;1.53;34.04;100693.94;5027623;28;20062;-66
2022/03/11 09:04:21;;;;;;;12.13;6.18;;;;;;;1.26;34.16;100693.88;5027989;28;20037;-67
2022/03/11 09:06:50;;;;;;;9.32;6.35;;;;;;;1.24;34.64;100695.59;5027975;28;20108;-67
2022/03/11 09:09:20;;;;;;;9.73;5.80;;;;;;;1.14;34.69;100686.84;5028192;28;20117;-67
2022/03/11 09:11:52;;;;;;;8.48;5.35;;;;;;;0.97;34.64;100700.69;5028079;28;20049;-66
2022/03/11 09:14:21;;;;;;;6.63;5.53;;;;;;;1.08;35.07;100685.94;5027829;28;20041;-67
2022/03/11 09:16:51;;;;;;;11.15;5.93;;;;;;;1.31;34.62;100694.75;5027217;28;20066;-67
2022/03/11 09:19:21;;;;;;;8.27;5.22;;;;;;;1.38;34.51;100686.06;5027047;28;20041;-67
2022/03/11 09:21:51;;;;;;;11.82;6.35;;;;;;;1.32;34.70;100683.44;5027107;28;20042;-66
2022/03/11 09:24:21;;;;;;;10.43;6.10;;;;;;;1.43;34.95;100670.41;5027174;28;20041;-67
2022/03/11 09:26:52;;;;;;;10.18;7.45;;;;;;;1.79;34.19;100677.50;5026570;28;20046;-67
2022/03/11 09:29:23;;;;;;;11.98;7.78;;;;;;;1.90;34.45;100679.25;5027346;28;20065;-67
2022/03/11 09:31:51;;;;;;;10.95;6.10;;;;;;;2.16;34.25;100671.41;5026271;28;20100;-67
2022/03/11 09:34:21;;;;;;;11.13;6.90;;;;;;;2.40;33.90;100661.81;5026775;28;20069;-67
2022/03/11 09:36:53;;;;;;;8.88;7.00;;;;;;;2.47;33.10;100692.31;5026856;28;20049;-67
2022/03/11 09:39:22;;;;;;;8.57;5.30;;;;;;;2.20;32.89;100688.84;5026697;28;20352;-67
2022/03/11 09:41:53;;;;;;;10.52;6.45;;;;;;;2.14;33.24;100661.81;5027290;28;20029;-67
2022/03/11 09:44:24;;;;;;;8.25;5.68;;;;;;;2.51;33.09;100668.75;5026839;28;20289;-67
2022/03/11 09:46:52;;;;;;;8.95;5.88;;;;;;;2.34;32.79;100675.75;5026893;28;20053;-67
2022/03/11 09:49:22;;;;;;;8.38;6.63;;;;;;;2.06;32.65;100674.91;5026625;28;20038;-67
2022/03/11 09:51:52;;;;;;;12.38;7.22;;;;;;;2.10;32.97;100667.94;5026707;28;20073;-67
2022/03/11 09:54:23;;;;;;;9.25;6.40;;;;;;;2.17;33.20;100661.81;5026449;28;20046;-67
2022/03/11 09:56:54;;;;;;;7.82;5.53;;;;;;;2.38;32.34;100685.34;5026421;28;20046;-67
2022/03/11 09:59:23;;;;;;;8.60;7.05;;;;;;;2.47;32.38;100656.56;5026466;28;20046;-67
2022/03/11 10:01:53;;;;;;;8.80;6.25;;;;;;;2.60;32.23;100659.16;5026514;28;20042;-67
2022/03/11 10:04:23;;;;;;;9.27;5.38;;;;;;;2.34;31.90;100623.44;5026521;28;20050;-67
2022/03/11 10:06:54;;;;;;;8.23;5.65;;;;;;;2.51;32.14;100647.81;5025696;28;20046;-66
2022/03/11 10:09:32;;;;;;;9.73;5.43;;;;;;;2.76;31.55;100640.78;5026600;28;20049;-67
2022/03/11 10:12:07;;;;;;;9.48;5.93;;;;;;;2.92;31.74;100649.47;5026531;28;20195;-66
2022/03/11 10:14:40;;;;;;;6.95;5.03;;;;;;;2.95;31.19;100644.22;5026241;28;20294;-67
2022/03/11 10:17:20;;;;;;;8.02;6.28;;;;;;;2.78;31.06;100632.91;5026263;28;20046;-67
2022/03/11 10:19:59;;;;;;;9.23;5.50;;;;;;;3.00;31.07;100641.56;5026395;28;20050;-66
2022/03/11 10:22:32;;;;;;;9.02;6.28;;;;;;;2.84;31.00;100646.00;5026359;28;20289;-67
2022/03/11 10:25:10;;;;;;;10.85;5.38;;;;;;;2.85;30.96;100632.91;5026232;28;20294;-67
2022/03/11 10:28:00;;;;;;;8.88;5.63;;;;;;;2.98;30.67;100633.72;5026229;28;20049;-66
2022/03/11 10:30:36;;;;;;;9.18;6.28;;;;;;;3.14;30.86;100626.66;5026316;28;20099;-66
2022/03/11 10:33:10;;;;;;;9.77;6.97;;;;;;;3.31;30.20;100644.94;5026061;28;20092;-67
2022/03/11 10:35:47;;;;;;;7.07;4.90;;;;;;;3.17;30.37;100627.53;5025778;28;20061;-67
2022/03/11 10:38:21;;;;;;;10.85;6.35;;;;;;;2.79;30.74;100609.34;5025858;28;20087;-67
2022/03/11 10:40:55;;;;;;;8.90;6.35;;;;;;;3.19;31.23;100631.00;5025724;28;20045;-67
2022/03/11 10:43:30;;;;;;;10.30;6.40;;;;;;;3.42;30.77;100636.13;5025610;28;20042;-66
2022/03/11 10:46:09;;;;;;;9.45;6.32;;;;;;;3.37;30.29;100651.00;5025658;28;20092;-67
2022/03/11 10:48:43;;;;;;;10.73;7.13;;;;;;;3.42;30.86;100625.63;5025631;28;20294;-67
2022/03/11 10:51:26;;;;;;;9.82;6.53;;;;;;;3.76;30.66;100626.28;5025727;28;20049;-65
2022/03/11 10:54:00;;;;;;;9.52;5.53;;;;;;;3.76;29.79;100623.66;5024526;28;20062;-66
2022/03/11 10:56:34;;;;;;;10.23;5.45;;;;;;;3.60;29.70;100627.28;5025457;28;20088;-66
2022/03/11 10:59:24;;;;;;;6.85;4.35;;;;;;;2.72;29.85;100500.31;5025698;28;20042;-67
2022/03/11 11:01:57;;;;;;;7.13;5.82;;;;;;;3.70;31.00;100622.84;5025584;28;20108;-66
2022/03/11 11:04:26;;;;;;;12.40;5.65;;;;;;;3.81;30.20;100619.25;5024703;28;20209;-67
2022/03/11 11:06:56;;;;;;;8.25;5.57;;;;;;;3.79;29.63;100614.91;5026095;28;20223;-66
2022/03/11 11:09:27;;;;;;;8.65;5.68;;;;;;;3.73;29.54;100591.34;5025109;28;20271;-67
2022/03/11 11:11:56;;;;;;;7.53;5.50;;;;;;;4.04;29.79;100612.94;5025032;28;20042;-67
2022/03/11 11:14:28;;;;;;;9.27;6.13;;;;;;;4.07;29.29;100590.19;5025455;28;20042;-69
2022/03/11 11:16:57;;;;;;;7.80;5.00;;;;;;;3.46;29.80;100500.69;5024162;28;20104;-68
2022/03/11 11:19:30;;;;;;;6.50;5.15;;;;;;;4.07;28.86;100595.44;5028536;28;20046;-66
2022/03/11 11:21:58;;;;;;;7.40;5.57;;;;;;;4.00;29.44;100596.38;5029293;28;20239;-66
2022/03/11 11:24:29;;;;;;;6.88;5.20;;;;;;;4.09;29.19;100587.53;5029085;28;20285;-66
2022/03/11 11:26:58;;;;;;;7.35;4.63;;;;;;;4.06;29.28;100579.69;5029410;28;20081;-66
2022/03/11 11:29:32;;;;;;;7.07;4.85;;;;;;;4.14;28.95;100586.63;5029269;28;20245;-66
2022/03/11 11:32:06;;;;;;;7.35;5.55;;;;;;;3.49;28.63;100482.31;5028922;28;20071;-66
2022/03/11 11:34:39;;;;;;;6.97;4.57;;;;;;;3.51;28.74;100522.50;5028475;28;20046;-66
2022/03/11 11:37:37;;;;;;;6.55;5.00;;;;;;;3.89;28.61;100571.13;5028953;28;20050;-66
2022/03/11 11:40:20;;;;;;;8.80;4.95;;;;;;;4.00;28.77;100572.75;5027815;28;20087;-67
2022/03/11 11:43:29;;;;;;;5.72;4.00;;;;;;;3.84;28.44;100574.66;5029129;28;20286;-66